Weather History for KSDY - June, 2013

Change the Weather History Date:

Thursday, June 27, 2013

  Actual Average Record
Temperature  
Mean Temperature 68 °F -  
Max Temperature 80 °F 83 °F 99 °F (1964)
Min Temperature 55 °F 52 °F 39 °F (2000)
Cooling Degree Days 2    
Growing Degree Days 18 (Base 50)    
Moisture  
Dew Point 52 °F    
Average Humidity 56    
Maximum Humidity 88    
Minimum Humidity 30    
Precipitation  
Precipitation 0.00 in - - ()
Sea Level Pressure  
Sea Level Pressure 30.07 in    
Wind  
Wind Speed 7 mph (WNW)    
Max Wind Speed 21 mph    
Max Gust Speed 26 mph    
Visibility 10 miles    
Events      
Averages and records for this station are not official NWS values.
T = Trace of Precipitation, MM = Missing Value Source: NWS Daily Summary

Daily Weather History Graph

Daily Weather History Graph

Search for Another Location

Airport or City:

Trip Planner

Search our weather history database for the weather conditions in past years. The results will help you decide how hot, cold, wet, or windy it might be!

Date:

Astronomy

Jun. 27, 2013 Rise Set
Actual Time 5:00 AM MDT 8:59 PM MDT
Civil Twilight 4:19 AM MDT 9:39 PM MDT
Nautical Twilight 3:23 AM MDT 10:36 PM MDT
Astronomical Twilight 1:52 AM MDT 12:06 AM MDT
Moon 11:31 PM MDT (6/27) 10:27 AM MDT (6/27)
Length of Visible Light 17h 19m
Length of Day
15h 58m
Waning Gibbous, 76% of the Moon is Illuminated
Jun 27
Waning Gibbous
Jun 29
Last Quarter
Jul 8
New
Jul 15
First Quarter
Jul 22
Full

Hourly Weather History & Observations

Time (MDT) Temp. Heat Index Dew Point Humidity Pressure Visibility Wind Dir Wind Speed Gust Speed Precip Events Conditions
12:15 AM 60.8 °F - 53.6 °F 77% 30.00 in 10.0 mi Calm Calm - N/A   Clear
12:35 AM 60.8 °F - 53.6 °F 77% 30.01 in 10.0 mi Calm Calm - N/A   Clear
12:55 AM 60.8 °F - 53.6 °F 77% 30.01 in 10.0 mi Calm Calm - N/A   Clear
1:15 AM 62.6 °F - 51.8 °F 68% 30.01 in 10.0 mi West 4.6 mph - N/A   Clear
1:35 AM 60.8 °F - 53.6 °F 77% 30.01 in 10.0 mi Calm Calm - N/A   Clear
2:15 AM 62.6 °F - 51.8 °F 68% 30.02 in 10.0 mi West 5.8 mph - N/A   Clear
2:35 AM 60.8 °F - 51.8 °F 72% 30.02 in 10.0 mi West 6.9 mph - N/A   Clear
2:55 AM 62.6 °F - 51.8 °F 68% 30.02 in 10.0 mi WNW 8.1 mph - N/A   Clear
3:15 AM 60.8 °F - 50.0 °F 68% 30.02 in 10.0 mi WNW 6.9 mph - N/A   Clear
3:35 AM 60.8 °F - 51.8 °F 72% 30.02 in 10.0 mi Calm Calm - N/A   Clear
3:55 AM 60.8 °F - 51.8 °F 72% 30.02 in 10.0 mi Calm Calm - N/A   Clear
4:15 AM 59.0 °F - 51.8 °F 77% 30.02 in 10.0 mi Calm Calm - N/A   Clear
4:35 AM 57.2 °F - 51.8 °F 82% 30.02 in 10.0 mi Calm Calm - N/A   Clear
4:55 AM 57.2 °F - 51.8 °F 82% 30.02 in 10.0 mi Calm Calm - N/A   Clear
5:15 AM 55.4 °F - 51.8 °F 88% 30.02 in 10.0 mi South 5.8 mph - N/A   Clear
5:35 AM 55.4 °F - 51.8 °F 88% 30.03 in 10.0 mi South 5.8 mph - N/A   Clear
5:55 AM 55.4 °F - 51.8 °F 88% 30.03 in 10.0 mi SW 3.5 mph - N/A   Clear
6:15 AM 57.2 °F - 53.6 °F 88% 30.04 in 10.0 mi SSW 3.5 mph - N/A   Clear
6:35 AM 59.0 °F - 53.6 °F 82% 30.04 in 10.0 mi SSW 5.8 mph - N/A   Clear
6:55 AM 62.6 °F - 55.4 °F 77% 30.04 in 10.0 mi South 4.6 mph - N/A   Clear
7:15 AM 64.4 °F - 53.6 °F 68% 30.04 in 10.0 mi South 3.5 mph - N/A   Clear
7:35 AM 68.0 °F - 53.6 °F 60% 30.05 in 10.0 mi West 6.9 mph - N/A   Clear
7:55 AM 69.8 °F - 53.6 °F 56% 30.05 in 10.0 mi West 11.5 mph - N/A   Clear
8:15 AM 71.6 °F - 53.6 °F 53% 30.06 in 10.0 mi WNW 11.5 mph - N/A   Clear
8:55 AM 73.4 °F - 53.6 °F 50% 30.06 in 10.0 mi WNW 13.8 mph - N/A   Clear
9:15 AM 73.4 °F - 51.8 °F 47% 30.06 in 10.0 mi WNW 15.0 mph - N/A   Clear
9:35 AM 73.4 °F - 53.6 °F 50% 30.06 in 10.0 mi WNW 13.8 mph - N/A   Clear
9:55 AM 73.4 °F - 53.6 °F 50% 30.07 in 10.0 mi WNW 13.8 mph - N/A   Clear
10:15 AM 75.2 °F - 53.6 °F 47% 30.07 in 10.0 mi WNW 13.8 mph - N/A   Clear
10:35 AM 75.2 °F - 53.6 °F 47% 30.08 in 10.0 mi WNW 13.8 mph - N/A   Clear
11:15 AM 78.8 °F - 51.8 °F 39% 30.08 in 10.0 mi NW 11.5 mph 17.3 mph N/A   Clear
11:35 AM 78.8 °F - 50.0 °F 36% 30.08 in 10.0 mi West 15.0 mph 18.4 mph N/A   Clear
11:55 AM 78.8 °F - 51.8 °F 39% 30.08 in 10.0 mi West 12.7 mph 19.6 mph N/A   Clear
12:15 PM 80.6 °F - 48.2 °F 32% 30.08 in 10.0 mi West 17.3 mph 21.9 mph N/A   Clear
12:35 PM 80.6 °F - 48.2 °F 32% 30.08 in 10.0 mi West 13.8 mph 21.9 mph N/A   Clear
12:55 PM 80.6 °F - 46.4 °F 30% 30.08 in 10.0 mi West 19.6 mph 24.2 mph N/A   Clear
1:15 PM 80.6 °F - 48.2 °F 32% 30.08 in 10.0 mi West 20.7 mph 26.5 mph N/A   Clear
1:35 PM 80.6 °F - 48.2 °F 32% 30.09 in 10.0 mi WNW 18.4 mph 25.3 mph N/A   Clear
1:55 PM 80.6 °F - 51.8 °F 37% 30.08 in 10.0 mi West 18.4 mph 23.0 mph N/A   Clear
2:15 PM 80.6 °F - 50.0 °F 34% 30.08 in 10.0 mi WNW 20.7 mph 25.3 mph N/A   Clear
2:35 PM 80.6 °F - 51.8 °F 37% 30.09 in 10.0 mi WNW 17.3 mph 26.5 mph N/A   Clear
2:55 PM 80.6 °F - 51.8 °F 37% 30.09 in 10.0 mi WNW 16.1 mph 24.2 mph N/A   Clear
3:15 PM 80.6 °F - 51.8 °F 37% 30.09 in 10.0 mi NW 15.0 mph 24.2 mph N/A   Clear
3:35 PM 80.6 °F - 51.8 °F 37% 30.09 in 10.0 mi NW 18.4 mph 25.3 mph N/A   Clear
3:55 PM 80.6 °F 80.3 °F 53.6 °F 39% 30.10 in 10.0 mi NW 13.8 mph 23.0 mph N/A   Clear
4:15 PM 80.6 °F - 51.8 °F 37% 30.09 in 10.0 mi WNW 19.6 mph - N/A   Clear
4:35 PM 80.6 °F - 51.8 °F 37% 30.10 in 10.0 mi WNW 17.3 mph 21.9 mph N/A   Clear
4:55 PM 80.6 °F - 51.8 °F 37% 30.10 in 10.0 mi NW 12.7 mph - N/A   Clear
5:35 PM 80.6 °F - 50.0 °F 34% 30.10 in 10.0 mi NW 15.0 mph 19.6 mph N/A   Clear
5:55 PM 80.6 °F - 48.2 °F 32% 30.10 in 10.0 mi NW 12.7 mph 20.7 mph N/A   Clear
6:35 PM 80.6 °F - 50.0 °F 34% 30.10 in 10.0 mi WNW 13.8 mph - N/A   Clear
6:55 PM 78.8 °F - 50.0 °F 36% 30.10 in 10.0 mi WNW 9.2 mph - N/A   Clear
7:15 PM 78.8 °F - 51.8 °F 39% 30.11 in 10.0 mi WNW 10.4 mph - N/A   Clear
7:35 PM 77.0 °F - 53.6 °F 44% 30.11 in 10.0 mi West 6.9 mph - N/A   Clear
7:55 PM 75.2 °F - 53.6 °F 47% 30.11 in 10.0 mi West 8.1 mph - N/A   Clear
8:15 PM 73.4 °F - 55.4 °F 53% 30.12 in 10.0 mi West 6.9 mph - N/A   Clear
8:35 PM 69.8 °F - 55.4 °F 60% 30.12 in 10.0 mi West 8.1 mph - N/A   Clear
8:55 PM 68.0 °F - 53.6 °F 60% 30.12 in 10.0 mi West 9.2 mph - N/A   Clear
9:15 PM 66.2 °F - 53.6 °F 64% 30.12 in 10.0 mi WNW 9.2 mph - N/A   Clear
9:35 PM 66.2 °F - 53.6 °F 64% 30.13 in 10.0 mi WNW 10.4 mph - N/A   Clear
9:55 PM 64.4 °F - 53.6 °F 68% 30.13 in 10.0 mi NW 8.1 mph - N/A   Clear
10:15 PM 66.2 °F - 51.8 °F 60% 30.13 in 10.0 mi WNW 10.4 mph - N/A   Clear
10:35 PM 64.4 °F - 51.8 °F 64% 30.14 in 10.0 mi WNW 10.4 mph - N/A   Clear
10:55 PM 64.4 °F - 51.8 °F 64% 30.14 in 10.0 mi WNW 10.4 mph - N/A   Clear
11:15 PM 64.4 °F - 51.8 °F 64% 30.14 in 10.0 mi WNW 10.4 mph - N/A   Clear
11:35 PM 64.4 °F - 51.8 °F 64% 30.14 in 10.0 mi WNW 11.5 mph - N/A   Clear
11:55 PM 62.6 °F - 51.8 °F 68% 30.14 in 10.0 mi WNW 10.4 mph - N/A   Clear